createdAt,value
2018-10-16T00:01:49.452Z,98382.34
2018-10-16T00:04:17.813Z,98390.20
2018-10-16T00:06:46.127Z,98385.51
2018-10-16T00:09:15.414Z,98389.14
2018-10-16T00:11:58.840Z,98390.31
2018-10-16T00:14:27.387Z,98389.72
2018-10-16T00:16:55.634Z,98384.68
2018-10-16T00:19:24.248Z,98394.99
2018-10-16T00:21:52.625Z,98391.02
2018-10-16T00:24:21.747Z,98388.69
2018-10-16T00:26:51.494Z,98391.38
2018-10-16T00:29:20.900Z,98397.00
2018-10-16T00:31:49.196Z,98404.14
2018-10-16T00:34:17.509Z,98401.90
2018-10-16T00:36:46.097Z,98401.86
2018-10-16T00:39:15.702Z,98399.09
2018-10-16T00:41:48.416Z,98393.23
2018-10-16T00:44:16.798Z,98399.31
2018-10-16T00:46:45.096Z,98402.82
2018-10-16T00:49:13.374Z,98406.33
2018-10-16T00:51:41.639Z,98405.17
2018-10-16T00:54:09.868Z,98403.88
2018-10-16T00:56:38.483Z,98405.99
2018-10-16T00:59:07.334Z,98406.23
2018-10-16T01:01:35.531Z,98409.63
2018-10-16T01:04:06.052Z,98405.53
2018-10-16T01:06:34.960Z,98413.38
2018-10-16T01:09:07.431Z,98413.73
2018-10-16T01:11:36.481Z,98412.87
2018-10-16T01:14:05.185Z,98417.64
2018-10-16T01:16:33.463Z,98423.81
2018-10-16T01:19:01.862Z,98418.65
2018-10-16T01:21:30.138Z,98424.27
2018-10-16T01:23:58.667Z,98423.80
2018-10-16T01:26:27.299Z,98424.73
2018-10-16T01:28:55.628Z,98421.46
2018-10-16T01:31:23.897Z,98420.88
2018-10-16T01:33:52.317Z,98427.59
2018-10-16T01:36:20.568Z,98430.39
2018-10-16T01:38:48.840Z,98427.34
2018-10-16T01:41:17.143Z,98419.91
2018-10-16T01:43:45.426Z,98424.83
2018-10-16T01:46:13.694Z,98420.77
2018-10-16T01:48:41.942Z,98418.20
2018-10-16T01:51:10.203Z,98413.55
2018-10-16T01:53:39.111Z,98417.88
2018-10-16T01:56:07.521Z,98415.84
2018-10-16T01:58:35.751Z,98421.84
2018-10-16T02:01:04.176Z,98420.67
2018-10-16T02:03:33.276Z,98423.25
2018-10-16T02:06:01.534Z,98421.38
2018-10-16T02:08:31.081Z,98429.33
2018-10-16T02:10:59.425Z,98428.34
2018-10-16T02:13:27.806Z,98430.91
2018-10-16T02:15:56.512Z,98426.97
2018-10-16T02:18:25.002Z,98431.03
2018-10-16T02:20:53.241Z,98432.95
2018-10-16T02:23:21.841Z,98436.15
2018-10-16T02:25:50.427Z,98432.97
2018-10-16T02:28:19.344Z,98438.92
2018-10-16T02:30:47.555Z,98440.09
2018-10-16T02:33:16.132Z,98436.45
2018-10-16T02:35:44.388Z,98440.09
2018-10-16T02:38:12.729Z,98441.67
2018-10-16T02:40:41.359Z,98440.67
2018-10-16T02:43:09.641Z,98439.97
2018-10-16T02:45:38.114Z,98446.97
2018-10-16T02:48:06.363Z,98443.62
2018-10-16T02:50:34.629Z,98442.77
2018-10-16T02:53:03.158Z,98457.53
2018-10-16T02:55:38.585Z,98455.54
2018-10-16T02:58:07.348Z,98460.26
2018-10-16T03:00:36.182Z,98460.68
2018-10-16T03:03:04.577Z,98459.23
2018-10-16T03:05:32.853Z,98457.95
2018-10-16T03:08:01.940Z,98462.52
2018-10-16T03:10:30.242Z,98467.12
2018-10-16T03:12:58.514Z,98472.20
2018-10-16T03:15:27.400Z,98473.83
2018-10-16T03:17:56.362Z,98472.91
2018-10-16T03:20:24.957Z,98472.82
2018-10-16T03:22:53.524Z,98478.59
2018-10-16T03:25:21.757Z,98481.25
2018-10-16T03:27:50.347Z,98484.86
2018-10-16T03:30:18.673Z,98485.41
2018-10-16T03:32:46.894Z,98487.06
2018-10-16T03:35:15.157Z,98487.03
2018-10-16T03:37:43.323Z,98485.43
2018-10-16T03:40:12.222Z,98489.75
2018-10-16T03:42:41.353Z,98490.98
2018-10-16T03:45:11.410Z,98487.05
2018-10-16T03:47:40.701Z,98494.23
2018-10-16T03:50:09.657Z,98485.94
2018-10-16T03:52:38.392Z,98498.05
2018-10-16T03:55:06.977Z,98497.31
2018-10-16T03:57:35.501Z,98497.36
2018-10-16T04:00:05.263Z,98498.77
2018-10-16T04:02:33.508Z,98500.80
2018-10-16T04:05:02.028Z,98498.55
2018-10-16T04:07:30.194Z,98500.18
2018-10-16T04:09:58.459Z,98498.64
2018-10-16T04:12:26.683Z,98501.33
2018-10-16T04:14:54.994Z,98509.67
2018-10-16T04:17:23.248Z,98511.62
2018-10-16T04:19:52.392Z,98510.05
2018-10-16T04:22:21.367Z,98507.48
2018-10-16T04:24:49.896Z,98505.39
2018-10-16T04:27:18.175Z,98501.99
2018-10-16T04:29:46.469Z,98513.66
2018-10-16T04:32:16.206Z,98510.66
2018-10-16T04:34:45.461Z,98511.06
2018-10-16T04:37:14.353Z,98513.85
2018-10-16T04:39:42.661Z,98505.77
2018-10-16T04:42:11.547Z,98509.74
2018-10-16T04:44:39.940Z,98514.05
2018-10-16T04:47:08.230Z,98511.11
2018-10-16T04:49:36.765Z,98513.69
2018-10-16T04:52:05.339Z,98515.12
2018-10-16T04:54:33.765Z,98520.00
2018-10-16T04:57:02.043Z,98514.20
2018-10-16T04:59:31.227Z,98517.52
2018-10-16T05:01:59.488Z,98521.95
2018-10-16T05:04:29.105Z,98522.32
2018-10-16T05:06:57.335Z,98529.63
2018-10-16T05:09:25.574Z,98523.95
2018-10-16T05:11:55.359Z,98525.14
2018-10-16T05:14:23.642Z,98526.73
2018-10-16T05:16:52.058Z,98526.86
2018-10-16T05:19:20.252Z,98531.81
2018-10-16T05:21:49.282Z,98534.15
2018-10-16T05:24:17.663Z,98541.03
2018-10-16T05:26:46.537Z,98535.45
2018-10-16T05:29:14.873Z,98541.31
2018-10-16T05:31:43.617Z,98544.33
2018-10-16T05:34:12.589Z,98541.31
2018-10-16T05:36:41.070Z,98544.19
2018-10-16T05:39:12.075Z,98549.03
2018-10-16T05:41:40.511Z,98550.69
2018-10-16T05:44:09.192Z,98550.91
2018-10-16T05:46:37.453Z,98554.07
2018-10-16T05:49:05.997Z,98555.73
2018-10-16T05:51:34.943Z,98558.30
2018-10-16T05:54:03.480Z,98552.22
2018-10-16T05:56:31.779Z,98560.87
2018-10-16T05:59:00.159Z,98561.64
2018-10-16T06:01:28.489Z,98564.85
2018-10-16T06:03:56.936Z,98561.41
2018-10-16T06:06:25.193Z,98570.41
2018-10-16T06:08:53.544Z,98572.34
2018-10-16T06:11:21.825Z,98575.92
2018-10-16T06:13:50.080Z,98575.36
2018-10-16T06:16:18.466Z,98582.85
2018-10-16T06:18:47.117Z,98578.82
2018-10-16T06:21:15.509Z,98588.59
2018-10-16T06:23:44.151Z,98585.84
2018-10-16T06:26:12.641Z,98591.39
2018-10-16T06:28:41.021Z,98589.91
2018-10-16T06:31:10.418Z,98592.08
2018-10-16T06:33:38.719Z,98596.10
2018-10-16T06:36:07.229Z,98599.72
2018-10-16T06:38:35.796Z,98598.15
2018-10-16T06:41:04.649Z,98601.85
2018-10-16T06:43:32.765Z,98598.61
2018-10-16T06:46:01.026Z,98603.05
2018-10-16T06:48:29.717Z,98605.84
2018-10-16T06:50:58.197Z,98604.96
2018-10-16T06:53:26.947Z,98608.48
2018-10-16T06:55:55.580Z,98612.88
2018-10-16T06:58:23.916Z,98615.59
2018-10-16T07:00:52.124Z,98611.72
2018-10-16T07:03:20.342Z,98615.81
2018-10-16T07:05:48.964Z,98612.64
2018-10-16T07:08:17.368Z,98621.66
2018-10-16T07:10:45.478Z,98620.74
2018-10-16T07:13:13.987Z,98621.36
2018-10-16T07:15:42.491Z,98622.80
2018-10-16T07:18:12.616Z,98618.34
2018-10-16T07:20:40.892Z,98617.05
2018-10-16T07:23:09.131Z,98621.95
2018-10-16T07:25:37.392Z,98620.34
2018-10-16T07:28:05.633Z,98622.98
2018-10-16T07:30:34.005Z,98623.83
2018-10-16T07:33:03.027Z,98618.56
2018-10-16T07:35:31.763Z,98622.08
2018-10-16T07:38:00.190Z,98625.99
2018-10-16T07:40:29.908Z,98628.47
2018-10-16T07:42:59.096Z,98631.45
2018-10-16T07:45:27.453Z,98634.52
2018-10-16T07:47:56.331Z,98636.17
2018-10-16T07:50:25.007Z,98630.44
2018-10-16T07:52:53.368Z,98642.77
2018-10-16T07:55:21.689Z,98642.06
2018-10-16T07:57:49.995Z,98648.98
2018-10-16T08:00:18.194Z,98640.95
2018-10-16T08:02:46.541Z,98650.61
2018-10-16T08:05:14.744Z,98647.45
2018-10-16T08:07:43.339Z,98651.70
2018-10-16T08:10:12.766Z,98646.68
2018-10-16T08:12:41.499Z,98646.28
2018-10-16T08:15:10.424Z,98647.19
2018-10-16T08:17:39.241Z,98647.07
2018-10-16T08:20:07.518Z,98644.37
2018-10-16T08:22:38.998Z,98655.11
2018-10-16T08:25:07.268Z,98647.23
2018-10-16T08:27:35.924Z,98646.66
2018-10-16T08:30:05.501Z,98645.38
2018-10-16T08:32:35.141Z,98644.98
2018-10-16T08:35:03.364Z,98644.69
2018-10-16T08:39:51.145Z,98642.89
2018-10-16T08:42:45.642Z,98644.66
2018-10-16T08:45:31.101Z,98646.72
2018-10-16T08:48:16.432Z,98643.48
2018-10-16T08:51:01.907Z,98645.50
2018-10-16T08:53:30.145Z,98640.33
2018-10-16T08:55:58.360Z,98641.34
2018-10-16T08:58:26.948Z,98635.79
2018-10-16T09:00:55.105Z,98643.09
2018-10-16T09:03:23.592Z,98630.73
2018-10-16T09:05:52.897Z,98633.77
2018-10-16T09:08:21.143Z,98628.89
2018-10-16T09:10:50.308Z,98626.66
2018-10-16T09:13:18.547Z,98630.15
2018-10-16T09:15:47.136Z,98630.92
2018-10-16T09:18:15.405Z,98626.15
2018-10-16T09:20:44.098Z,98634.39
2018-10-16T09:23:12.593Z,98637.56
2018-10-16T09:25:41.096Z,98634.48
2018-10-16T09:28:09.272Z,98634.59
2018-10-16T09:30:37.512Z,98636.55
2018-10-16T09:33:06.733Z,98643.41
2018-10-16T09:35:35.030Z,98637.86
2018-10-16T09:38:03.879Z,98641.82
2018-10-16T09:40:32.651Z,98648.38
2018-10-16T09:43:01.121Z,98640.47
2018-10-16T09:45:29.745Z,98641.93
2018-10-16T09:47:58.527Z,98642.17
2018-10-16T09:50:26.758Z,98640.20
2018-10-16T09:52:55.374Z,98637.82
2018-10-16T09:55:23.641Z,98634.34
2018-10-16T09:57:51.863Z,98642.20
2018-10-16T10:00:25.568Z,98639.55
2018-10-16T10:02:53.841Z,98638.67
2018-10-16T10:05:22.411Z,98638.16
2018-10-16T10:07:50.689Z,98633.91
2018-10-16T10:10:18.923Z,98636.08
2018-10-16T10:12:47.392Z,98632.59
2018-10-16T10:15:15.904Z,98636.27
2018-10-16T10:17:44.042Z,98632.17
2018-10-16T10:20:12.710Z,98631.02
2018-10-16T10:22:40.932Z,98634.95
2018-10-16T10:25:09.346Z,98628.75
2018-10-16T10:27:37.540Z,98632.35
2018-10-16T10:30:09.466Z,98625.83
2018-10-16T10:32:37.704Z,98621.06
2018-10-16T10:35:08.578Z,98612.84
2018-10-16T10:37:37.266Z,98612.78
2018-10-16T10:40:05.705Z,98613.32
2018-10-16T10:42:34.248Z,98606.85
2018-10-16T10:45:02.947Z,98602.09
2018-10-16T10:47:31.332Z,98604.55
2018-10-16T10:49:59.661Z,98599.45
2018-10-16T10:52:28.057Z,98594.55
2018-10-16T10:54:56.498Z,98594.27
2018-10-16T10:57:24.689Z,98593.09
2018-10-16T10:59:52.914Z,98592.53
2018-10-16T11:02:21.264Z,98592.47
2018-10-16T11:04:49.521Z,98598.63
2018-10-16T11:07:18.670Z,98589.11
2018-10-16T11:09:47.187Z,98598.32
2018-10-16T11:12:15.419Z,98593.63
2018-10-16T11:14:44.058Z,98592.94
2018-10-16T11:17:12.737Z,98593.48
2018-10-16T11:21:00.635Z,98588.25
2018-10-16T11:23:28.804Z,98587.58
2018-10-16T11:25:57.034Z,98586.94
2018-10-16T11:28:25.235Z,98584.44
2018-10-16T11:30:54.544Z,98585.66
2018-10-16T11:33:22.785Z,98586.39
2018-10-16T11:35:50.993Z,98582.77
2018-10-16T11:38:19.269Z,98582.59
2018-10-16T11:40:47.519Z,98578.98
2018-10-16T11:43:15.870Z,98574.97
2018-10-16T11:45:44.974Z,98576.48
2018-10-16T11:48:13.498Z,98568.40
2018-10-16T11:50:41.751Z,98567.73
2018-10-16T11:53:11.044Z,98569.39
2018-10-16T11:55:39.279Z,98574.70
2018-10-16T11:58:07.508Z,98568.51
2018-10-16T12:00:35.748Z,98568.13
2018-10-16T12:03:04.914Z,98571.30
2018-10-16T12:05:33.157Z,98563.41
2018-10-16T12:08:01.356Z,98568.87
2018-10-16T12:10:29.665Z,98569.72
2018-10-16T12:12:57.863Z,98568.55
2018-10-16T12:15:26.109Z,98562.44
2018-10-16T12:19:01.021Z,98573.30
2018-10-16T12:21:29.240Z,98569.10
2018-10-16T12:23:57.531Z,98565.02
2018-10-16T12:26:25.830Z,98561.49
2018-10-16T12:28:54.592Z,98559.67
2018-10-16T12:31:22.935Z,98563.20
2018-10-16T12:33:51.310Z,98557.70
2018-10-16T12:36:19.649Z,98558.12
2018-10-16T12:38:47.876Z,98564.81
2018-10-16T12:41:16.143Z,98558.56
2018-10-16T12:43:44.620Z,98562.02
2018-10-16T12:46:13.190Z,98555.34
2018-10-16T12:48:41.420Z,98555.95
2018-10-16T12:51:09.666Z,98548.95
2018-10-16T12:53:37.952Z,98549.67
2018-10-16T12:56:07.522Z,98547.96
2018-10-16T12:58:36.299Z,98547.02
2018-10-16T13:01:05.084Z,98544.87
2018-10-16T13:03:40.000Z,98550.11
2018-10-16T13:06:08.468Z,98551.32
2018-10-16T13:08:36.952Z,98547.50
2018-10-16T13:11:05.747Z,98548.48
2018-10-16T13:13:33.950Z,98550.55
2018-10-16T13:16:02.193Z,98547.21
2018-10-16T13:18:30.429Z,98544.10
2018-10-16T13:20:59.026Z,98551.97
2018-10-16T13:23:27.317Z,98548.77
2018-10-16T13:25:56.534Z,98552.56
2018-10-16T13:28:25.387Z,98558.98
2018-10-16T13:30:53.628Z,98544.80
2018-10-16T13:33:22.002Z,98551.41
2018-10-16T13:35:50.283Z,98548.55
2018-10-16T13:38:19.233Z,98552.37
2018-10-16T13:40:47.464Z,98545.17
2018-10-16T13:43:16.477Z,98545.80
2018-10-16T13:45:45.297Z,98543.72
2018-10-16T13:48:14.188Z,98547.56
2018-10-16T13:50:42.771Z,98541.02
2018-10-16T13:53:11.256Z,98549.27
2018-10-16T13:55:39.606Z,98548.84
2018-10-16T13:58:07.852Z,98542.59
2018-10-16T14:00:36.098Z,98543.41
2018-10-16T14:03:04.405Z,98543.31
2018-10-16T14:05:32.734Z,98537.31
2018-10-16T14:08:02.393Z,98538.30
2018-10-16T14:10:31.315Z,98536.33
2018-10-16T14:13:00.505Z,98537.91
2018-10-16T14:15:28.836Z,98534.67
2018-10-16T14:17:57.475Z,98542.67
2018-10-16T14:20:25.767Z,98539.13
2018-10-16T14:22:53.980Z,98541.64
2018-10-16T14:25:22.468Z,98536.78
2018-10-16T14:27:50.801Z,98531.51
2018-10-16T14:30:18.918Z,98540.15
2018-10-16T14:32:47.197Z,98538.30
2018-10-16T14:35:15.377Z,98543.56
2018-10-16T14:37:43.896Z,98546.02
2018-10-16T14:40:14.608Z,98545.53
2018-10-16T14:42:43.193Z,98545.70
2018-10-16T14:45:12.461Z,98539.48
2018-10-16T14:47:41.121Z,98535.47
2018-10-16T14:50:11.451Z,98543.34
2018-10-16T14:52:39.772Z,98539.08
2018-10-16T14:55:08.237Z,98539.88
2018-10-16T14:57:36.786Z,98534.71
2018-10-16T15:00:08.179Z,98528.60
2018-10-16T15:02:36.708Z,98531.44
2018-10-16T15:05:06.844Z,98528.88
2018-10-16T15:07:35.585Z,98533.76
2018-10-16T15:10:05.136Z,98533.98
2018-10-16T15:12:33.775Z,98531.98
2018-10-16T15:15:04.335Z,98531.45
2018-10-16T15:17:32.906Z,98531.84
2018-10-16T15:20:01.185Z,98522.54
2018-10-16T15:22:30.443Z,98531.31
2018-10-16T15:24:59.093Z,98534.53
2018-10-16T15:27:27.337Z,98535.07
2018-10-16T15:29:56.300Z,98528.86
2018-10-16T15:32:24.552Z,98526.53
2018-10-16T15:34:53.284Z,98537.90
2018-10-16T15:37:22.558Z,98536.54
2018-10-16T15:39:50.788Z,98539.50
2018-10-16T15:42:19.009Z,98537.16
2018-10-16T15:44:48.032Z,98539.80
2018-10-16T15:47:16.335Z,98549.00
2018-10-16T15:49:44.513Z,98546.11
2018-10-16T15:52:13.464Z,98549.78
2018-10-16T15:54:42.022Z,98544.28
2018-10-16T15:57:10.594Z,98543.41
2018-10-16T15:59:39.026Z,98542.23
2018-10-16T16:02:07.293Z,98544.98
2018-10-16T16:04:35.881Z,98546.42
2018-10-16T16:07:04.182Z,98554.30
2018-10-16T16:09:32.641Z,98554.63
2018-10-16T16:12:01.369Z,98550.00
2018-10-16T16:14:29.864Z,98560.34
2018-10-16T16:16:59.359Z,98558.91
2018-10-16T16:19:28.294Z,98564.38
2018-10-16T16:21:56.715Z,98566.25
2018-10-16T16:24:25.212Z,98570.44
2018-10-16T16:26:53.449Z,98570.58
2018-10-16T16:29:22.753Z,98567.70
2018-10-16T16:31:51.282Z,98565.63
2018-10-16T16:34:19.677Z,98569.59
2018-10-16T16:36:48.441Z,98571.10
2018-10-16T16:39:17.081Z,98576.67
2018-10-16T16:41:46.395Z,98573.14
2018-10-16T16:44:15.334Z,98574.28
2018-10-16T16:46:43.565Z,98566.95
2018-10-16T16:49:12.038Z,98572.36
2018-10-16T16:51:40.294Z,98576.16
2018-10-16T16:54:08.617Z,98576.64
2018-10-16T16:56:37.423Z,98575.63
2018-10-16T16:59:06.117Z,98577.79
2018-10-16T17:01:34.480Z,98584.80
2018-10-16T17:04:02.909Z,98574.83
2018-10-16T17:06:31.249Z,98580.80
2018-10-16T17:11:38.486Z,98582.17
2018-10-16T17:14:07.197Z,98579.69
2018-10-16T17:16:35.859Z,98577.73
2018-10-16T17:19:04.852Z,98585.38
2018-10-16T17:21:33.395Z,98584.72
2018-10-16T17:24:01.731Z,98593.49
2018-10-16T17:26:30.941Z,98598.69
2018-10-16T17:29:00.456Z,98600.56
2018-10-16T17:31:29.634Z,98601.92
2018-10-16T17:33:58.909Z,98604.39
2018-10-16T17:36:27.619Z,98607.09
2018-10-16T17:38:56.414Z,98603.45
2018-10-16T17:41:24.798Z,98606.63
2018-10-16T17:43:53.040Z,98611.77
2018-10-16T17:46:22.881Z,98616.70
2018-10-16T17:48:51.990Z,98614.98
2018-10-16T17:51:20.915Z,98618.70
2018-10-16T17:53:49.354Z,98622.16
2018-10-16T17:56:17.715Z,98624.30
2018-10-16T17:58:46.253Z,98621.19
2018-10-16T18:01:14.617Z,98622.89
2018-10-16T18:03:42.941Z,98625.91
2018-10-16T18:06:11.325Z,98627.50
2018-10-16T18:08:40.126Z,98624.27
2018-10-16T18:11:09.171Z,98628.63
2018-10-16T18:13:37.770Z,98634.97
2018-10-16T18:16:06.737Z,98638.09
2018-10-16T18:18:35.235Z,98637.86
2018-10-16T18:21:03.766Z,98639.77
2018-10-16T18:23:32.592Z,98638.88
2018-10-16T18:26:01.022Z,98645.00
2018-10-16T18:28:29.760Z,98644.23
2018-10-16T18:30:58.193Z,98642.90
2018-10-16T18:33:27.273Z,98643.23
2018-10-16T18:35:57.220Z,98640.66
2018-10-16T18:38:26.385Z,98642.11
2018-10-16T18:40:54.808Z,98639.29
2018-10-16T18:43:23.111Z,98644.09
2018-10-16T18:45:56.051Z,98636.41
2018-10-16T18:48:24.425Z,98639.23
2018-10-16T18:50:54.391Z,98634.38
2018-10-16T18:53:23.485Z,98635.89
2018-10-16T18:55:52.230Z,98638.22
2018-10-16T18:58:20.434Z,98635.34
2018-10-16T19:00:48.877Z,98643.97
2018-10-16T19:03:18.323Z,98646.92
2018-10-16T19:05:47.756Z,98646.88
2018-10-16T19:08:16.632Z,98649.71
2018-10-16T19:10:45.298Z,98654.88
2018-10-16T19:13:13.731Z,98655.62
2018-10-16T19:15:42.840Z,98654.78
2018-10-16T19:18:12.834Z,98651.72
2018-10-16T19:20:41.424Z,98657.66
2018-10-16T19:23:09.892Z,98651.28
2018-10-16T19:25:38.149Z,98653.52
2018-10-16T19:28:07.444Z,98648.66
2018-10-16T19:30:36.282Z,98657.12
2018-10-16T19:33:05.617Z,98661.08
2018-10-16T19:35:34.301Z,98660.78
2018-10-16T19:38:02.697Z,98658.92
2018-10-16T19:40:31.624Z,98658.99
2018-10-16T19:43:00.647Z,98662.64
2018-10-16T19:45:29.471Z,98668.66
2018-10-16T19:47:57.836Z,98666.00
2018-10-16T19:50:26.410Z,98668.98
2018-10-16T19:52:56.553Z,98664.73
2018-10-16T19:55:25.683Z,98673.40
2018-10-16T19:57:55.227Z,98669.72
2018-10-16T20:00:23.591Z,98667.66
2018-10-16T20:02:52.255Z,98670.06
2018-10-16T20:05:21.544Z,98672.06
2018-10-16T20:07:50.495Z,98668.91
2018-10-16T20:10:19.399Z,98668.64
2018-10-16T20:12:48.588Z,98667.25
2018-10-16T20:15:17.605Z,98662.84
2018-10-16T20:17:45.930Z,98662.06
2018-10-16T20:20:14.351Z,98668.08
2018-10-16T20:22:43.396Z,98666.16
2018-10-16T20:25:11.895Z,98664.14
2018-10-16T20:27:40.916Z,98667.86
2018-10-16T20:30:10.461Z,98666.26
2018-10-16T20:32:38.708Z,98671.96
2018-10-16T20:35:07.050Z,98671.50
2018-10-16T20:37:35.341Z,98673.78
2018-10-16T20:40:03.750Z,98673.97
2018-10-16T20:42:32.022Z,98674.59
2018-10-16T20:45:00.454Z,98668.33
2018-10-16T20:47:28.780Z,98670.77
2018-10-16T20:49:56.999Z,98675.84
2018-10-16T20:52:25.273Z,98671.38
2018-10-16T20:54:53.623Z,98674.09
2018-10-16T20:57:21.999Z,98677.28
2018-10-16T20:59:50.844Z,98676.25
2018-10-16T21:02:19.886Z,98681.68
2018-10-16T21:04:48.562Z,98678.30
2018-10-16T21:07:16.810Z,98677.51
2018-10-16T21:09:45.315Z,98676.10
2018-10-16T21:12:13.695Z,98671.53
2018-10-16T21:14:44.704Z,98666.60
2018-10-16T21:17:13.336Z,98664.92
2018-10-16T21:19:41.723Z,98659.88
2018-10-16T21:22:10.260Z,98664.48
2018-10-16T21:24:38.509Z,98665.56
2018-10-16T21:27:10.595Z,98666.38
2018-10-16T21:29:39.743Z,98666.27
2018-10-16T21:32:08.634Z,98667.23
2018-10-16T21:34:36.869Z,98665.97
2018-10-16T21:37:05.353Z,98673.98
2018-10-16T21:39:33.579Z,98661.50
2018-10-16T21:42:01.840Z,98661.50
2018-10-16T21:44:30.536Z,98665.27
2018-10-16T21:46:58.825Z,98664.44
2018-10-16T21:49:27.093Z,98663.37
2018-10-16T21:51:56.029Z,98665.73
2018-10-16T21:54:24.393Z,98662.94
2018-10-16T21:56:52.648Z,98664.47
2018-10-16T21:59:21.356Z,98658.83
2018-10-16T22:01:55.571Z,98659.91
2018-10-16T22:04:23.927Z,98655.55
2018-10-16T22:06:52.231Z,98652.25
2018-10-16T22:09:20.494Z,98652.37
2018-10-16T22:11:49.855Z,98658.63
2018-10-16T22:14:18.381Z,98649.80
2018-10-16T22:16:46.576Z,98647.70
2018-10-16T22:19:14.902Z,98653.45
2018-10-16T22:21:43.069Z,98646.64
2018-10-16T22:24:12.476Z,98649.34
2018-10-16T22:26:41.524Z,98645.70
2018-10-16T22:29:10.934Z,98651.69
2018-10-16T22:31:39.291Z,98659.94
2018-10-16T22:34:08.292Z,98668.96
2018-10-16T22:36:36.585Z,98674.84
2018-10-16T22:39:08.871Z,98679.27
2018-10-16T22:41:37.783Z,98680.47
2018-10-16T22:44:06.731Z,98683.05
2018-10-16T22:46:35.501Z,98684.47
2018-10-16T22:49:04.717Z,98685.97
2018-10-16T22:51:33.003Z,98688.55
2018-10-16T22:54:01.152Z,98685.97
2018-10-16T22:56:29.866Z,98690.44
2018-10-16T22:58:58.113Z,98688.58
2018-10-16T23:01:27.292Z,98691.16
2018-10-16T23:03:55.513Z,98699.28
2018-10-16T23:06:24.038Z,98689.30
2018-10-16T23:08:52.288Z,98696.92
2018-10-16T23:11:20.579Z,98696.82
2018-10-16T23:13:48.776Z,98694.92
2018-10-16T23:16:17.051Z,98693.42
2018-10-16T23:18:45.322Z,98684.00
2018-10-16T23:21:13.984Z,98684.02
2018-10-16T23:23:42.210Z,98684.02
2018-10-16T23:26:10.849Z,98681.67
2018-10-16T23:28:39.164Z,98678.39
2018-10-16T23:31:08.015Z,98678.00
2018-10-16T23:33:36.281Z,98674.46
2018-10-16T23:36:04.988Z,98673.65
2018-10-16T23:38:33.221Z,98670.23
2018-10-16T23:41:01.525Z,98668.84
2018-10-16T23:43:30.695Z,98670.59
2018-10-16T23:45:59.227Z,98669.91
2018-10-16T23:48:27.557Z,98667.67
2018-10-16T23:50:56.468Z,98662.38
2018-10-16T23:53:24.771Z,98664.94
2018-10-16T23:55:53.009Z,98671.16
2018-10-16T23:58:21.636Z,98667.91
